Time;durP1;ratioP1;P1;durP2;ratioP2;P2;SDS_P1;SDS_P2;PMS_P1;PMS_P2;Temp;Humidity;BMP_temperature;BMP_pressure;BME280_temperature;BME280_humidity;BME280_pressure;Samples;Min_cycle;Max_cycle;Signal;HPM_P1;HPM_P2
2022/04/07 00:00:03;;;;;;;0.20;0.20;;;;;;;19.55;39.19;99036.56;5089094;28;20048;-31
2022/04/07 00:02:29;;;;;;;0.20;0.20;;;;;;;19.55;38.86;99042.06;5068289;28;20131;-32
2022/04/07 00:04:54;;;;;;;0.20;0.20;;;;;;;19.55;38.91;99041.28;5092171;28;20051;-32
2022/04/07 00:07:20;;;;;;;0.20;0.20;;;;;;;19.53;38.89;99038.84;5087241;28;20051;-31
2022/04/07 00:09:46;;;;;;;0.28;0.28;;;;;;;19.54;38.64;99042.41;5088170;28;20046;-32
2022/04/07 00:12:11;;;;;;;0.20;0.20;;;;;;;19.53;38.97;99030.56;5093069;28;20044;-35
2022/04/07 00:14:37;;;;;;;0.20;0.20;;;;;;;19.54;39.09;99029.41;5088123;28;20047;-32
2022/04/07 00:17:04;;;;;;;0.20;0.20;;;;;;;19.54;38.88;99028.59;5055899;28;20478;-31
2022/04/07 00:19:29;;;;;;;0.20;0.20;;;;;;;19.53;38.72;99024.22;5089973;28;20080;-31
2022/04/07 00:21:59;;;;;;;0.20;0.20;;;;;;;19.53;38.92;99016.75;5092784;28;20513;-31
2022/04/07 00:24:25;;;;;;;0.20;0.20;;;;;;;19.53;38.84;99015.94;5090134;28;20135;-33
2022/04/07 00:26:51;;;;;;;0.20;0.20;;;;;;;19.52;38.83;99009.63;5088993;28;20139;-31
2022/04/07 00:29:17;;;;;;;0.20;0.20;;;;;;;19.52;38.96;99004.09;5087002;28;20234;-31
2022/04/07 00:31:43;;;;;;;0.20;0.20;;;;;;;19.51;38.94;98994.19;5056532;28;20510;-32
2022/04/07 00:34:10;;;;;;;0.20;0.20;;;;;;;19.51;38.93;98994.19;5089506;28;20487;-32
2022/04/07 00:36:36;;;;;;;0.20;0.20;;;;;;;19.51;38.73;98996.94;5089649;28;20068;-32
2022/04/07 00:39:02;;;;;;;0.20;0.20;;;;;;;19.50;39.17;98991.75;5089147;28;20051;-33
2022/04/07 00:41:27;;;;;;;0.20;0.20;;;;;;;19.51;39.01;98979.56;5091129;28;20080;-32
2022/04/07 00:43:53;;;;;;;0.20;0.20;;;;;;;19.51;38.85;98987.84;5088869;28;20048;-32
2022/04/07 00:46:19;;;;;;;0.20;0.20;;;;;;;19.51;38.98;98974.03;5090114;28;20052;-33
2022/04/07 00:48:45;;;;;;;0.20;0.20;;;;;;;19.50;39.12;98978.75;5070964;28;20055;-31
2022/04/07 00:51:11;;;;;;;0.20;0.20;;;;;;;19.50;38.80;98973.22;5090072;28;20486;-32
2022/04/07 00:53:38;;;;;;;0.20;0.20;;;;;;;19.48;38.74;98961.72;5071744;28;20058;-31
2022/04/07 00:56:04;;;;;;;0.20;0.20;;;;;;;19.49;39.10;98968.84;5089745;28;20128;-32
2022/04/07 00:58:32;;;;;;;0.20;0.20;;;;;;;19.48;38.81;98961.72;5090804;28;20052;-31
2022/04/07 01:00:58;;;;;;;0.20;0.20;;;;;;;19.49;38.81;98970.81;5068840;28;20083;-31
2022/04/07 01:03:25;;;;;;;0.20;0.20;;;;;;;19.48;38.90;98961.72;5088136;28;20052;-33
2022/04/07 01:05:51;;;;;;;0.20;0.20;;;;;;;19.49;38.89;98957.00;5084531;28;20076;-32
2022/04/07 01:08:16;;;;;;;0.30;0.30;;;;;;;19.48;39.03;98949.88;5071402;28;20132;-31
2022/04/07 01:10:43;;;;;;;0.20;0.20;;;;;;;19.49;38.99;98948.72;5091225;28;20183;-31
2022/04/07 01:13:11;;;;;;;0.20;0.20;;;;;;;19.48;38.74;98938.84;5088793;28;20139;-31
2022/04/07 01:15:37;;;;;;;0.20;0.20;;;;;;;19.48;38.87;98931.34;5090317;28;20044;-33
2022/04/07 01:18:03;;;;;;;0.20;0.20;;;;;;;19.47;38.80;98926.16;5091573;28;20036;-31
2022/04/07 01:20:29;;;;;;;0.20;0.20;;;;;;;19.46;39.10;98925.34;5090823;28;20051;-31
2022/04/07 01:22:55;;;;;;;0.20;0.20;;;;;;;19.48;38.76;98919.50;5088718;28;20048;-31
2022/04/07 01:25:21;;;;;;;0.20;0.20;;;;;;;19.47;38.85;98910.41;5072859;28;20134;-31
2022/04/07 01:27:49;;;;;;;0.20;0.20;;;;;;;19.47;39.10;98906.81;5090515;28;20043;-31
2022/04/07 01:30:15;;;;;;;0.20;0.20;;;;;;;19.46;38.80;98899.69;5088813;28;20128;-31
2022/04/07 01:32:44;;;;;;;0.20;0.20;;;;;;;19.45;38.83;98901.66;5088782;28;20120;-31
2022/04/07 01:35:11;;;;;;;0.20;0.20;;;;;;;19.46;39.00;98902.44;5092219;28;20095;-31
2022/04/07 01:37:38;;;;;;;0.20;0.20;;;;;;;19.46;38.79;98897.72;5088705;28;20127;-31
2022/04/07 01:40:06;;;;;;;0.20;0.20;;;;;;;19.45;39.10;98898.06;5088215;28;20079;-31
2022/04/07 01:42:33;;;;;;;0.20;0.20;;;;;;;19.45;38.84;98898.06;5070643;28;20177;-30
2022/04/07 01:45:01;;;;;;;0.20;0.20;;;;;;;19.44;39.07;98891.75;5066295;28;20126;-31
2022/04/07 01:47:27;;;;;;;0.20;0.20;;;;;;;19.44;38.79;98885.44;5090085;28;20079;-32
2022/04/07 01:49:56;;;;;;;0.20;0.20;;;;;;;19.44;39.08;98874.38;5092062;28;20097;-31
2022/04/07 01:52:23;;;;;;;0.20;0.20;;;;;;;19.44;39.06;98872.44;5070549;28;20473;-31
2022/04/07 01:54:50;;;;;;;0.20;0.20;;;;;;;19.43;38.87;98870.81;5089514;28;20071;-31
2022/04/07 01:57:20;;;;;;;0.20;0.20;;;;;;;19.44;39.17;98866.91;5089420;28;20080;-31
2022/04/07 01:59:46;;;;;;;0.20;0.20;;;;;;;19.44;38.89;98871.63;5087172;28;20131;-32
2022/04/07 02:02:11;;;;;;;0.20;0.20;;;;;;;19.44;39.06;98861.38;5078634;28;20083;-32
2022/04/07 02:04:52;;;;;;;0.22;0.22;;;;;;;19.43;38.92;98858.94;5088626;28;20081;-35
2022/04/07 02:07:18;;;;;;;0.20;0.20;;;;;;;19.43;38.88;98865.28;5072264;28;20482;-31
2022/04/07 02:09:43;;;;;;;0.20;0.20;;;;;;;19.43;38.90;98861.69;5069184;28;20053;-31
2022/04/07 02:12:09;;;;;;;0.20;0.20;;;;;;;19.43;38.92;98857.00;5087735;28;20060;-31
2022/04/07 02:14:35;;;;;;;0.20;0.20;;;;;;;19.43;38.99;98858.94;5090846;28;20050;-32
2022/04/07 02:17:01;;;;;;;0.20;0.20;;;;;;;19.42;39.13;98857.31;5087350;28;20048;-31
2022/04/07 02:19:27;;;;;;;0.20;0.20;;;;;;;19.42;38.81;98841.56;5068602;28;20109;-32
2022/04/07 02:21:53;;;;;;;0.20;0.20;;;;;;;19.42;38.86;98844.34;5084947;28;20519;-32
2022/04/07 02:24:19;;;;;;;0.20;0.20;;;;;;;19.41;38.74;98837.19;5088360;28;20040;-31
2022/04/07 02:26:44;;;;;;;0.20;0.20;;;;;;;19.42;38.87;98847.09;5089496;28;20410;-35
2022/04/07 02:29:10;;;;;;;0.20;0.20;;;;;;;19.42;39.07;98829.72;5087143;28;20044;-31
2022/04/07 02:31:35;;;;;;;0.20;0.20;;;;;;;19.41;39.16;98828.91;5088494;28;20071;-32
2022/04/07 02:34:01;;;;;;;0.20;0.20;;;;;;;19.42;39.09;98819.50;5089434;28;20105;-31
2022/04/07 02:36:27;;;;;;;0.20;0.20;;;;;;;19.41;39.01;98823.41;5087550;28;20046;-32
2022/04/07 02:38:52;;;;;;;0.20;0.20;;;;;;;19.40;38.93;98816.25;5089286;28;20229;-31
2022/04/07 02:41:18;;;;;;;0.20;0.20;;;;;;;19.41;39.13;98819.84;5087363;28;20638;-31
2022/04/07 02:43:45;;;;;;;0.20;0.20;;;;;;;19.41;38.96;98808.78;5088023;28;20509;-33
2022/04/07 02:46:11;;;;;;;0.20;0.20;;;;;;;19.40;39.10;98796.13;5088237;28;20075;-31
2022/04/07 02:48:37;;;;;;;0.20;0.20;;;;;;;19.39;39.07;98786.25;5086597;28;20088;-32
2022/04/07 02:51:03;;;;;;;0.20;0.20;;;;;;;19.40;39.26;98783.16;5086569;28;20055;-31
2022/04/07 02:53:29;;;;;;;0.20;0.20;;;;;;;19.39;38.79;98770.50;5085593;28;20127;-32
2022/04/07 02:55:54;;;;;;;0.20;0.20;;;;;;;19.41;38.93;98772.91;5088647;28;20044;-31
2022/04/07 02:58:20;;;;;;;0.20;0.20;;;;;;;19.39;39.06;98761.41;5084960;28;20048;-32
2022/04/07 03:00:46;;;;;;;0.20;0.20;;;;;;;19.39;39.06;98739.31;5086189;28;20054;-31
2022/04/07 03:03:11;;;;;;;0.20;0.20;;;;;;;19.38;38.97;98748.72;5064492;28;20145;-31
2022/04/07 03:05:37;;;;;;;0.20;0.20;;;;;;;19.38;39.01;98735.72;5087342;28;20463;-31
2022/04/07 03:08:03;;;;;;;0.20;0.20;;;;;;;19.38;39.02;98737.69;5089261;28;20050;-31
2022/04/07 03:10:29;;;;;;;0.20;0.20;;;;;;;19.38;39.16;98729.41;5089283;28;20052;-33
2022/04/07 03:12:54;;;;;;;0.20;0.20;;;;;;;19.38;39.07;98741.25;5070464;28;20048;-31
2022/04/07 03:15:20;;;;;;;0.20;0.20;;;;;;;19.37;38.83;98730.56;5089218;28;20256;-32
2022/04/07 03:17:46;;;;;;;0.20;0.20;;;;;;;19.37;39.16;98723.09;5070287;28;20040;-31
2022/04/07 03:20:11;;;;;;;0.20;0.20;;;;;;;19.36;38.94;98715.94;5087823;28;20052;-31
2022/04/07 03:22:37;;;;;;;0.20;0.20;;;;;;;19.37;39.22;98706.53;5086516;28;20487;-34
2022/04/07 03:25:03;;;;;;;0.20;0.20;;;;;;;19.36;38.80;98702.16;5089358;28;20407;-31
2022/04/07 03:27:29;;;;;;;0.20;0.20;;;;;;;19.37;39.04;98698.25;5094529;28;20196;-31
2022/04/07 03:29:54;;;;;;;0.20;0.20;;;;;;;19.36;38.86;98693.88;5091447;28;20758;-32
2022/04/07 03:32:20;;;;;;;0.20;0.20;;;;;;;19.36;39.11;98688.34;5090197;28;20070;-32
2022/04/07 03:34:46;;;;;;;0.20;0.20;;;;;;;19.37;38.99;98680.88;5092233;28;20100;-32
2022/04/07 03:37:11;;;;;;;0.20;0.20;;;;;;;19.38;39.22;98674.19;5093638;28;20127;-32
2022/04/07 03:39:37;;;;;;;0.20;0.20;;;;;;;19.36;39.09;98673.75;5088393;28;20044;-32
2022/04/07 03:42:03;;;;;;;0.20;0.20;;;;;;;19.36;39.09;98673.75;5091872;28;20140;-32
2022/04/07 03:44:29;;;;;;;0.20;0.20;;;;;;;19.36;38.97;98671.00;5091380;28;20048;-31
2022/04/07 03:46:54;;;;;;;0.20;0.20;;;;;;;19.36;38.98;98668.22;5090699;28;20089;-32
2022/04/07 03:49:20;;;;;;;0.20;0.20;;;;;;;19.36;39.17;98666.28;5086490;28;20139;-31
2022/04/07 03:51:46;;;;;;;0.20;0.20;;;;;;;19.36;39.09;98665.47;5091354;28;20048;-31
2022/04/07 03:54:13;;;;;;;0.20;0.20;;;;;;;19.35;39.15;98647.31;5089820;28;20463;-31
2022/04/07 03:56:39;;;;;;;0.20;0.20;;;;;;;19.34;38.92;98648.41;5090937;28;20480;-31
2022/04/07 03:59:05;;;;;;;0.20;0.20;;;;;;;19.36;39.12;98646.16;5089786;28;20105;-32
2022/04/07 04:01:30;;;;;;;0.20;0.20;;;;;;;19.35;39.18;98637.06;5089880;28;20467;-32
2022/04/07 04:03:56;;;;;;;0.20;0.20;;;;;;;19.35;38.90;98625.22;5096419;28;20043;-32
2022/04/07 04:06:22;;;;;;;0.20;0.20;;;;;;;19.35;38.92;98626.03;5091171;28;20047;-34
2022/04/07 04:08:48;;;;;;;0.20;0.20;;;;;;;19.35;38.91;98606.72;5090351;28;20123;-32
2022/04/07 04:11:13;;;;;;;0.20;0.20;;;;;;;19.35;38.95;98612.22;5090105;28;20102;-32
2022/04/07 04:13:40;;;;;;;0.20;0.20;;;;;;;19.35;39.06;98615.00;5092138;28;20047;-34
2022/04/07 04:16:06;;;;;;;0.20;0.20;;;;;;;19.35;39.08;98603.16;5092952;28;20496;-31
2022/04/07 04:18:32;;;;;;;0.20;0.20;;;;;;;19.34;39.04;98593.22;5090257;28;20048;-31
2022/04/07 04:20:58;;;;;;;0.20;0.20;;;;;;;19.34;39.23;98599.53;5070186;28;20509;-32
2022/04/07 04:23:23;;;;;;;0.20;0.20;;;;;;;19.34;39.12;98595.97;5090695;28;20048;-34
2022/04/07 04:25:49;;;;;;;0.20;0.20;;;;;;;19.34;39.06;98591.28;5091392;28;20096;-32
2022/04/07 04:28:15;;;;;;;0.20;0.20;;;;;;;19.34;38.90;98595.97;5087812;28;20044;-32
2022/04/07 04:30:41;;;;;;;0.20;0.20;;;;;;;19.34;39.07;98590.47;5089593;28;20052;-32
2022/04/07 04:33:06;;;;;;;0.20;0.20;;;;;;;19.34;39.16;98573.91;5055539;28;20051;-32
2022/04/07 04:35:32;;;;;;;0.20;0.20;;;;;;;19.34;39.19;98584.94;5088842;28;20106;-32
2022/04/07 04:37:58;;;;;;;0.20;0.20;;;;;;;19.33;39.11;98577.81;5091862;28;20044;-32
2022/04/07 04:40:23;;;;;;;0.20;0.20;;;;;;;19.33;39.27;98555.75;5072461;28;20036;-31
2022/04/07 04:42:49;;;;;;;0.20;0.20;;;;;;;19.32;38.86;98543.91;5088672;28;20036;-32
2022/04/07 04:45:15;;;;;;;0.20;0.20;;;;;;;19.32;39.00;98538.38;5090901;28;20151;-32
2022/04/07 04:47:41;;;;;;;0.20;0.20;;;;;;;19.32;39.14;98534.81;5092039;28;20488;-32
2022/04/07 04:50:07;;;;;;;0.20;0.20;;;;;;;19.34;39.05;98540.78;5090400;28;20441;-35
2022/04/07 04:52:33;;;;;;;0.20;0.20;;;;;;;19.32;38.92;98537.56;5071944;28;20447;-32
2022/04/07 04:54:59;;;;;;;0.20;0.20;;;;;;;19.32;39.08;98523.78;5089146;28;20105;-31
2022/04/07 04:57:25;;;;;;;0.20;0.20;;;;;;;19.32;39.04;98515.50;5070168;28;20407;-32
2022/04/07 04:59:50;;;;;;;0.20;0.20;;;;;;;19.32;39.13;98498.94;5089726;28;20126;-32
2022/04/07 05:02:16;;;;;;;0.20;0.20;;;;;;;19.31;39.00;98503.66;5089067;28;20052;-32
2022/04/07 05:04:47;;;;;;;0.20;0.20;;;;;;;19.31;39.02;98500.91;5092069;28;20044;-32
2022/04/07 05:07:13;;;;;;;0.20;0.20;;;;;;;19.33;38.93;98484.00;5089390;28;20185;-31
2022/04/07 05:09:39;;;;;;;0.20;0.20;;;;;;;19.33;39.16;98475.72;5089574;28;20043;-31
2022/04/07 05:12:05;;;;;;;0.20;0.20;;;;;;;19.31;39.17;98470.53;5086929;28;20074;-32
2022/04/07 05:14:31;;;;;;;0.20;0.20;;;;;;;19.30;39.01;98453.19;5085943;28;20126;-32
2022/04/07 05:16:56;;;;;;;0.20;0.20;;;;;;;19.32;38.97;98457.53;5087966;28;20056;-32
2022/04/07 05:19:22;;;;;;;0.20;0.20;;;;;;;19.31;39.00;98473.31;5086507;28;20382;-32
2022/04/07 05:21:50;;;;;;;0.20;0.20;;;;;;;19.31;39.19;98462.25;5086330;28;20402;-33
2022/04/07 05:24:17;;;;;;;0.20;0.20;;;;;;;19.30;38.95;98450.41;5088246;28;20048;-31
2022/04/07 05:26:44;;;;;;;0.20;0.20;;;;;;;19.30;39.00;98461.47;5090313;28;20170;-33
2022/04/07 05:29:09;;;;;;;0.20;0.20;;;;;;;19.30;38.94;98455.94;5086728;28;20052;-33
2022/04/07 05:31:35;;;;;;;0.20;0.20;;;;;;;19.30;38.93;98453.19;5088475;28;20040;-30
2022/04/07 05:34:01;;;;;;;0.20;0.20;;;;;;;19.29;39.13;98446.03;5088802;28;20344;-30
2022/04/07 05:36:27;;;;;;;0.20;0.20;;;;;;;19.29;38.96;98440.50;5069473;28;20392;-32
2022/04/07 05:38:53;;;;;;;0.20;0.20;;;;;;;19.30;39.03;98446.88;5086426;28;20093;-30
2022/04/07 05:41:18;;;;;;;0.20;0.20;;;;;;;19.30;39.29;98428.34;5071917;28;20485;-31
2022/04/07 05:43:44;;;;;;;0.20;0.20;;;;;;;19.29;39.15;98421.19;5084596;28;20052;-32
2022/04/07 05:46:10;;;;;;;0.20;0.20;;;;;;;19.30;39.08;98427.53;5087105;28;20044;-32
2022/04/07 05:48:35;;;;;;;0.20;0.20;;;;;;;19.29;39.08;98425.91;5087450;28;20647;-32
2022/04/07 05:51:01;;;;;;;0.22;0.22;;;;;;;19.30;39.09;98424.78;5062624;28;20074;-31
2022/04/07 05:53:27;;;;;;;0.20;0.20;;;;;;;19.29;39.02;98421.19;5087507;28;20040;-31
2022/04/07 05:55:52;;;;;;;0.20;0.20;;;;;;;19.28;39.61;98413.25;5084829;28;20048;-30
2022/04/07 05:58:19;;;;;;;0.20;0.20;;;;;;;19.32;39.28;98392.13;5082193;28;20048;-34
2022/04/07 06:00:45;;;;;;;0.20;0.20;;;;;;;19.32;39.05;98397.63;5078504;28;20346;-32
2022/04/07 06:03:12;;;;;;;0.20;0.20;;;;;;;19.30;39.37;98386.94;5078540;28;20063;-31
2022/04/07 06:05:37;;;;;;;0.20;0.20;;;;;;;19.29;39.36;98385.31;5075982;28;20071;-31
2022/04/07 06:08:04;;;;;;;0.20;0.20;;;;;;;19.29;39.29;98379.81;5079250;28;20739;-31
2022/04/07 06:10:30;;;;;;;0.20;0.20;;;;;;;19.30;39.19;98403.50;5079681;28;20469;-31
2022/04/07 06:12:55;;;;;;;0.20;0.20;;;;;;;19.31;39.34;98382.22;5065725;28;20522;-33
2022/04/07 06:15:21;;;;;;;0.20;0.20;;;;;;;19.32;39.14;98369.25;5076054;28;20544;-32
2022/04/07 06:17:48;;;;;;;0.20;0.20;;;;;;;19.29;39.30;98363.25;5040796;28;20079;-32
2022/04/07 06:20:14;;;;;;;0.20;0.20;;;;;;;19.30;39.24;98367.63;5079494;28;20186;-31
2022/04/07 06:22:41;;;;;;;0.22;0.22;;;;;;;19.29;39.35;98354.97;5077370;28;20048;-32
2022/04/07 06:25:08;;;;;;;0.20;0.20;;;;;;;19.28;39.31;98334.03;5079674;28;20139;-32
2022/04/07 06:27:38;;;;;;;0.20;0.20;;;;;;;19.29;39.22;98329.31;5064360;28;20118;-31
2022/04/07 06:30:05;;;;;;;0.20;0.20;;;;;;;19.29;39.33;98334.84;5080362;28;20131;-31
2022/04/07 06:32:31;;;;;;;0.20;0.20;;;;;;;19.29;39.19;98321.84;5078241;28;20146;-31
2022/04/07 06:34:56;;;;;;;0.20;0.20;;;;;;;19.29;39.05;98313.56;5065798;28;20051;-33
2022/04/07 06:37:22;;;;;;;0.20;0.20;;;;;;;19.29;39.27;98302.53;5079778;28;20403;-31
2022/04/07 06:39:48;;;;;;;0.20;0.20;;;;;;;19.29;39.33;98280.47;5079032;28;20127;-32
2022/04/07 06:42:13;;;;;;;0.20;0.20;;;;;;;19.28;39.45;98272.53;5079139;28;20036;-32
2022/04/07 06:44:39;;;;;;;0.20;0.20;;;;;;;19.29;39.30;98274.94;5078236;28;20036;-32
2022/04/07 06:47:05;;;;;;;0.20;0.20;;;;;;;19.28;39.35;98247.69;5076238;28;20055;-36
2022/04/07 06:49:30;;;;;;;0.20;0.20;;;;;;;19.29;39.10;98252.88;5076858;28;20401;-32
2022/04/07 06:52:00;;;;;;;0.20;0.20;;;;;;;19.29;39.10;98249.31;5076684;28;20047;-32
2022/04/07 06:54:26;;;;;;;0.20;0.20;;;;;;;19.28;39.36;98240.22;5076614;28;20108;-33
2022/04/07 06:56:51;;;;;;;0.20;0.20;;;;;;;19.28;39.22;98226.44;5079482;28;20051;-32
2022/04/07 06:59:17;;;;;;;0.20;0.20;;;;;;;19.28;39.18;98215.38;5082458;28;20051;-33
2022/04/07 07:01:42;;;;;;;0.20;0.20;;;;;;;19.29;39.15;98192.16;5078215;28;20041;-31
2022/04/07 07:04:08;;;;;;;0.20;0.20;;;;;;;19.28;39.31;98173.19;5079953;28;20054;-32
2022/04/07 07:06:34;;;;;;;0.20;0.20;;;;;;;19.29;39.19;98169.28;5077032;28;21070;-32
2022/04/07 07:09:00;;;;;;;0.20;0.20;;;;;;;19.29;39.24;98174.81;5075281;28;20098;-33
2022/04/07 07:11:25;;;;;;;0.20;0.20;;;;;;;19.28;39.06;98170.44;5080118;28;20052;-34
2022/04/07 07:13:51;;;;;;;0.20;0.20;;;;;;;19.29;39.22;98161.00;5085706;28;20047;-31
2022/04/07 07:16:16;;;;;;;0.20;0.20;;;;;;;19.28;39.35;98157.44;5080959;28;20484;-31
2022/04/07 07:18:42;;;;;;;0.20;0.20;;;;;;;19.28;39.46;98145.59;5084161;28;20485;-31
2022/04/07 07:21:08;;;;;;;0.20;0.20;;;;;;;19.28;39.31;98146.41;5079453;28;20052;-31
2022/04/07 07:23:34;;;;;;;0.20;0.20;;;;;;;19.28;39.33;98115.25;5081524;28;20186;-33
2022/04/07 07:26:00;;;;;;;0.20;0.20;;;;;;;19.27;39.36;98125.50;5087136;28;20041;-32
2022/04/07 07:28:25;;;;;;;0.20;0.20;;;;;;;19.27;39.27;98119.19;5064819;28;20073;-32
2022/04/07 07:30:51;;;;;;;0.20;0.20;;;;;;;19.28;39.43;98123.53;5082728;28;20083;-31
2022/04/07 07:33:17;;;;;;;0.20;0.20;;;;;;;19.28;39.36;98109.75;5080852;28;20055;-31
2022/04/07 07:35:45;;;;;;;0.28;0.28;;;;;;;19.28;39.26;98104.22;5086591;28;20047;-31
2022/04/07 07:38:11;;;;;;;0.20;0.20;;;;;;;19.21;40.54;98106.75;5064384;28;20150;-33
2022/04/07 07:40:37;;;;;;;0.20;0.20;;;;;;;19.29;39.61;98100.31;5066189;28;20484;-33
2022/04/07 07:43:03;;;;;;;0.20;0.20;;;;;;;19.32;39.42;98071.22;5048083;28;20060;-31
2022/04/07 07:45:31;;;;;;;0.20;0.20;;;;;;;19.30;39.52;98055.81;5083653;28;20414;-32
2022/04/07 07:48:18;;;;;;;;;;;;;;;19.28;39.68;98046.28;5068035;28;20120;-33
2022/04/07 07:50:45;;;;;;;0.20;0.20;;;;;;;19.28;39.35;98049.84;5081600;28;20389;-32
2022/04/07 07:53:17;;;;;;;0.20;0.20;;;;;;;19.30;39.62;98055.81;5054604;28;20349;-31
2022/04/07 07:55:42;;;;;;;0.20;0.20;;;;;;;19.29;39.39;98054.19;5065047;28;20454;-32
2022/04/07 07:58:08;;;;;;;0.20;0.20;;;;;;;19.30;39.62;98044.00;5072341;28;20051;-32
2022/04/07 08:00:34;;;;;;;0.20;0.20;;;;;;;19.31;39.48;98042.81;5075482;28;20383;-32
2022/04/07 08:02:59;;;;;;;0.20;0.20;;;;;;;19.32;39.54;98038.09;5076694;28;20415;-33
2022/04/07 08:05:25;;;;;;;0.20;0.20;;;;;;;19.31;39.37;98029.03;5080761;28;20044;-31
2022/04/07 08:07:50;;;;;;;0.20;0.20;;;;;;;19.32;39.35;98011.31;5078084;28;20040;-31
2022/04/07 08:10:16;;;;;;;0.20;0.20;;;;;;;19.32;39.57;98011.31;5076756;28;20487;-32
2022/04/07 08:12:42;;;;;;;0.20;0.20;;;;;;;19.33;39.56;98010.16;5081697;28;20105;-32
2022/04/07 08:15:09;;;;;;;0.20;0.20;;;;;;;19.34;39.53;97994.38;5080548;28;20097;-32
2022/04/07 08:17:35;;;;;;;0.20;0.20;;;;;;;19.34;41.67;97978.63;5078854;28;20501;-32
2022/04/07 08:20:03;;;;;;;0.20;0.20;;;;;;;19.41;40.54;97967.78;5084124;28;20059;-31
2022/04/07 08:22:30;;;;;;;0.20;0.20;;;;;;;19.43;40.12;97965.50;5082002;28;20159;-32
2022/04/07 08:24:56;;;;;;;0.20;0.20;;;;;;;19.43;40.21;97956.41;5078324;28;20521;-32
2022/04/07 08:27:26;;;;;;;0.20;0.20;;;;;;;19.43;40.20;97959.16;5068079;28;20040;-32
2022/04/07 08:29:52;;;;;;;0.20;0.20;;;;;;;19.43;40.48;97968.25;5079507;28;20046;-32
2022/04/07 08:32:18;;;;;;;0.20;0.20;;;;;;;19.43;40.17;97943.44;5062352;28;20498;-32
2022/04/07 08:34:44;;;;;;;0.20;0.20;;;;;;;19.45;40.12;97945.81;5057159;28;20556;-34
2022/04/07 08:37:10;;;;;;;0.30;0.30;;;;;;;19.46;40.23;97937.19;5074817;28;20048;-34
2022/04/07 08:39:35;;;;;;;0.20;0.20;;;;;;;19.47;39.98;97955.34;5074022;28;20036;-34
2022/04/07 08:42:04;;;;;;;0.20;0.20;;;;;;;19.48;39.90;97936.84;5081982;28;20482;-36
2022/04/07 08:44:31;;;;;;;;;;;;;;;19.49;39.99;97935.69;5063025;28;20075;-33
2022/04/07 08:46:58;;;;;;;0.20;0.20;;;;;;;19.49;39.90;97936.47;5062237;28;19993;-34
2022/04/07 08:49:25;;;;;;;0.20;0.20;;;;;;;19.49;39.80;97936.47;5080878;28;20129;-34
2022/04/07 08:51:52;;;;;;;0.20;0.20;;;;;;;19.51;40.09;97906.53;5085430;28;20127;-32
2022/04/07 08:54:18;;;;;;;0.20;0.20;;;;;;;19.53;39.78;97922.78;5084749;28;20127;-32
2022/04/07 08:56:45;;;;;;;0.20;0.20;;;;;;;19.54;39.86;97932.66;5088601;28;20040;-33
2022/04/07 08:59:11;;;;;;;0.20;0.20;;;;;;;19.55;39.76;97907.44;5085973;28;20321;-31
2022/04/07 09:01:37;;;;;;;0.30;0.30;;;;;;;19.55;39.92;97885.34;5085816;28;20051;-33
2022/04/07 09:04:03;;;;;;;0.20;0.20;;;;;;;19.58;39.93;97888.56;5083731;28;20466;-34
2022/04/07 09:06:29;;;;;;;0.20;0.20;;;;;;;19.57;40.02;97900.78;5077732;28;20442;-33
2022/04/07 09:08:55;;;;;;;0.20;0.20;;;;;;;19.59;39.71;97895.69;5065175;28;20484;-32
2022/04/07 09:11:21;;;;;;;0.20;0.20;;;;;;;19.60;40.07;97889.81;5083538;28;20097;-32
2022/04/07 09:13:47;;;;;;;0.20;0.20;;;;;;;19.59;39.97;97877.16;5083572;28;20479;-32
2022/04/07 09:16:14;;;;;;;0.20;0.20;;;;;;;19.62;39.90;97878.47;5084597;28;20483;-36
2022/04/07 09:18:43;;;;;;;0.20;0.20;;;;;;;19.63;40.01;97866.25;5064371;28;20044;-32
2022/04/07 09:21:16;;;;;;;0.20;0.20;;;;;;;19.62;39.84;97862.69;5053932;28;20471;-35
2022/04/07 09:23:42;;;;;;;0.20;0.20;;;;;;;19.62;39.84;97879.25;5062570;28;20075;-32
2022/04/07 09:26:12;;;;;;;0.20;0.20;;;;;;;19.63;40.05;97869.81;5062530;28;20041;-32
2022/04/07 09:28:38;;;;;;;0.20;0.20;;;;;;;19.64;39.81;97868.63;5083020;28;20162;-32
2022/04/07 09:31:04;;;;;;;0.20;0.20;;;;;;;19.64;40.07;97848.53;5061668;28;20052;-31
2022/04/07 09:33:35;;;;;;;0.20;0.20;;;;;;;19.64;40.03;97937.66;5079127;28;20708;-32
2022/04/07 09:36:03;;;;;;;0.20;0.20;;;;;;;19.65;40.23;98004.75;5080381;28;20146;-33
2022/04/07 09:38:31;;;;;;;0.20;0.20;;;;;;;19.64;39.95;97981.03;5065291;28;20139;-36
2022/04/07 09:41:12;;;;;;;0.20;0.20;;;;;;;19.63;40.34;97979.44;5082206;28;20086;-33
2022/04/07 09:43:58;;;;;;;0.20;0.20;;;;;;;19.63;40.01;97977.47;5083525;28;20220;-32
2022/04/07 09:46:24;;;;;;;0.20;0.20;;;;;;;19.63;40.14;97976.66;5081366;28;20183;-32
2022/04/07 09:49:07;;;;;;;0.20;0.20;;;;;;;19.63;39.89;97982.19;5062991;28;20049;-33
2022/04/07 09:51:40;;;;;;;0.20;0.20;;;;;;;19.63;40.06;97974.72;5071923;28;20148;-34
2022/04/07 09:54:09;;;;;;;0.20;0.20;;;;;;;19.63;39.97;97951.81;5071626;28;20209;-33
2022/04/07 09:56:36;;;;;;;0.20;0.20;;;;;;;19.63;39.93;97987.72;5063648;28;20197;-34
2022/04/07 09:59:02;;;;;;;0.20;0.20;;;;;;;19.63;40.07;97996.00;5065125;28;20131;-33
2022/04/07 10:01:30;;;;;;;0.20;0.20;;;;;;;19.62;40.09;97980.59;5062826;28;20047;-34
2022/04/07 10:03:56;;;;;;;0.20;0.20;;;;;;;19.62;40.10;97994.41;5083005;28;20161;-35
2022/04/07 10:06:22;;;;;;;0.20;0.20;;;;;;;19.61;40.23;97990.84;5078642;28;20056;-32
2022/04/07 10:08:50;;;;;;;0.20;0.20;;;;;;;19.61;39.90;97993.59;5078130;28;20437;-32
2022/04/07 10:11:17;;;;;;;0.20;0.20;;;;;;;19.61;40.21;98001.88;5052620;28;20843;-35
2022/04/07 10:13:44;;;;;;;0.20;0.20;;;;;;;19.60;40.25;98000.22;5077777;28;20047;-33
2022/04/07 10:16:30;;;;;;;0.20;0.20;;;;;;;19.60;40.20;98004.94;5063198;28;20055;-34
2022/04/07 10:18:58;;;;;;;0.20;0.20;;;;;;;19.60;40.27;97997.47;5078566;28;20060;-34
2022/04/07 10:22:03;;;;;;;0.20;0.20;;;;;;;19.60;40.33;97988.38;5080529;28;21375;-34
2022/04/07 10:24:37;;;;;;;0.20;0.20;;;;;;;19.59;40.02;97975.75;5046411;28;20138;-33
2022/04/07 10:27:25;;;;;;;0.20;0.20;;;;;;;19.58;40.35;97980.47;5065661;28;20047;-33
2022/04/07 10:32:45;;;;;;;0.20;0.20;;;;;;;19.58;40.13;97985.19;5146309;27;20198;-29
2022/04/07 10:35:29;;;;;;;0.20;0.20;;;;;;;19.58;40.08;97980.47;5121450;27;20085;-30
2022/04/07 10:37:56;;;;;;;0.20;0.20;;;;;;;19.57;40.29;97991.88;5138355;27;20133;-30
2022/04/07 10:43:25;;;;;;;0.20;0.20;;;;;;;19.57;40.10;97980.84;5158807;27;20221;-30
2022/04/07 10:46:05;;;;;;;0.20;0.20;;;;;;;19.56;39.91;97977.28;5110643;27;20069;-29
2022/04/07 10:48:36;;;;;;;0.20;0.20;;;;;;;19.57;39.77;97970.59;5115425;27;20941;-29
2022/04/07 10:51:07;;;;;;;0.20;0.20;;;;;;;19.56;40.35;97980.03;5131001;27;20134;-30
2022/04/07 10:53:56;;;;;;;0.20;0.20;;;;;;;19.55;40.02;97995.78;5100063;27;20130;-34
2022/04/07 10:56:24;;;;;;;0.20;0.20;;;;;;;19.58;42.04;97999.78;5118456;27;20383;-32
2022/04/07 10:58:54;;;;;;;0.20;0.20;;;;;;;19.69;41.97;97994.56;5129234;27;20047;-37
2022/04/07 11:09:53;;;;;;;0.20;0.20;;;;;;;19.90;46.15;98017.22;5172963;27;20196;-27
2022/04/07 11:12:32;;;;;;;0.20;0.20;;;;;;;19.91;45.52;98013.31;5137059;27;20125;-28
2022/04/07 11:20:20;;;;;;;0.20;0.20;;;;;;;19.85;43.84;98022.19;5174935;27;20202;-29
2022/04/07 11:22:55;;;;;;;0.20;0.20;;;;;;;19.85;43.50;98028.53;5120318;27;20094;-29
2022/04/07 11:25:25;;;;;;;0.20;0.20;;;;;;;19.84;43.34;98032.44;5123226;27;20167;-30
2022/04/07 11:28:14;;;;;;;0.20;0.20;;;;;;;19.84;43.00;98031.66;5149939;27;20040;-30
2022/04/07 11:30:46;;;;;;;0.20;0.20;;;;;;;19.83;42.83;98033.63;5120523;27;20083;-31
2022/04/07 11:38:38;;;;;;;0.20;0.20;;;;;;;19.84;42.47;98050.97;5164325;27;20221;-27
2022/04/07 11:41:07;;;;;;;0.20;0.20;;;;;;;19.86;42.25;98055.00;5098153;27;20142;-27
2022/04/07 11:43:37;;;;;;;0.20;0.20;;;;;;;19.87;42.00;98053.03;5108504;27;20269;-27
2022/04/07 11:46:04;;;;;;;0.20;0.20;;;;;;;19.87;42.28;98055.81;5110055;27;20526;-27
2022/04/07 11:48:50;;;;;;;0.20;0.20;;;;;;;19.87;41.90;98064.88;5103070;27;20047;-27
2022/04/07 11:51:17;;;;;;;0.20;0.20;;;;;;;19.87;41.70;98070.41;5130714;27;20063;-28
2022/04/07 11:53:52;;;;;;;0.20;0.20;;;;;;;19.90;41.91;98074.41;5133396;27;20546;-27
2022/04/07 11:56:21;;;;;;;0.20;0.20;;;;;;;19.88;41.83;98077.53;5113589;27;20143;-28
2022/04/07 11:59:06;;;;;;;0.20;0.20;;;;;;;19.89;41.71;98078.34;5131214;27;20058;-28